Terminal Aerodrome Forecast
Issued by NWS

Home | Current Version | Previous Version | Text Only | Print | Product List | Glossary On
Versions: 1 2 3 4 5 6 7 8 9 10 11 12 13 14 15 16
385
FTUS46 KSTO 081748
TAFSMF
TAF
KSMF 081748Z 0818/0918 15012G22KT 2SM -DZ BR OVC004
      TEMPO 0818/0820 5SM BR SCT005 OVC007
     FM082000 15015G25KT 5SM -DZ BR OVC015
     FM090200 16012KT 4SM -DZ BR OVC015=

USA.gov is the U.S. government's official web portal to all federal, state and local government web resources and services.